Terminal Aerodrome Forecast
Issued by NWS

Home | Current Version | Previous Version | Text Only | Print | Product List | Glossary Off
Versions: 1 2 3 4 5 6 7 8 9 10 11 12 13 14 15 16 17 18 19 20

000
FTUS43 KFGF 291737
TAFBJI
TAF
KBJI 291737Z 2918/3018 28010G18KT P6SM BKN025
     FM291900 26009KT P6SM BKN015
     FM292300 31008KT P6SM SCT070
     FM300300 32004KT P6SM FEW250=

USA.gov is the U.S. government's official web portal to all federal, state and local government web resources and services.